sensor_id;sensor_type;location;lat;lon;timestamp;P1;durP1;ratioP1;P2;durP2;ratioP2
55069;SDS011;40967;52.070;8.596;2022-11-20T00:01:42;11.03;;;6.10;;
55069;SDS011;40967;52.070;8.596;2022-11-20T00:04:08;10.13;;;5.40;;
55069;SDS011;40967;52.070;8.596;2022-11-20T00:06:35;10.55;;;5.90;;
55069;SDS011;40967;52.070;8.596;2022-11-20T00:09:00;11.55;;;6.10;;
55069;SDS011;40967;52.070;8.596;2022-11-20T00:11:27;11.30;;;6.47;;
55069;SDS011;40967;52.070;8.596;2022-11-20T00:13:55;10.52;;;5.38;;
55069;SDS011;40967;52.070;8.596;2022-11-20T00:16:25;12.80;;;6.22;;
55069;SDS011;40967;52.070;8.596;2022-11-20T00:18:52;10.82;;;5.80;;
55069;SDS011;40967;52.070;8.596;2022-11-20T00:21:19;11.32;;;5.88;;
55069;SDS011;40967;52.070;8.596;2022-11-20T00:23:47;11.75;;;5.90;;
55069;SDS011;40967;52.070;8.596;2022-11-20T00:26:14;11.85;;;5.80;;
55069;SDS011;40967;52.070;8.596;2022-11-20T00:28:41;11.27;;;5.70;;
55069;SDS011;40967;52.070;8.596;2022-11-20T00:31:09;10.47;;;5.73;;
55069;SDS011;40967;52.070;8.596;2022-11-20T00:33:39;10.83;;;5.27;;
55069;SDS011;40967;52.070;8.596;2022-11-20T00:36:06;10.13;;;5.30;;
55069;SDS011;40967;52.070;8.596;2022-11-20T00:38:34;9.93;;;5.32;;
55069;SDS011;40967;52.070;8.596;2022-11-20T00:41:06;11.80;;;5.90;;
55069;SDS011;40967;52.070;8.596;2022-11-20T00:43:32;11.45;;;5.82;;
55069;SDS011;40967;52.070;8.596;2022-11-20T00:45:58;9.00;;;4.37;;
55069;SDS011;40967;52.070;8.596;2022-11-20T00:48:28;9.55;;;5.07;;
55069;SDS011;40967;52.070;8.596;2022-11-20T00:50:54;8.70;;;4.80;;
55069;SDS011;40967;52.070;8.596;2022-11-20T00:53:20;8.93;;;4.70;;
55069;SDS011;40967;52.070;8.596;2022-11-20T00:58:28;9.20;;;4.65;;
55069;SDS011;40967;52.070;8.596;2022-11-20T01:00:59;9.40;;;4.75;;
55069;SDS011;40967;52.070;8.596;2022-11-20T01:03:32;8.93;;;4.97;;
55069;SDS011;40967;52.070;8.596;2022-11-20T01:06:00;9.82;;;4.53;;
55069;SDS011;40967;52.070;8.596;2022-11-20T01:08:33;8.45;;;4.47;;
55069;SDS011;40967;52.070;8.596;2022-11-20T01:11:04;8.55;;;4.85;;
55069;SDS011;40967;52.070;8.596;2022-11-20T01:13:31;7.75;;;4.30;;
55069;SDS011;40967;52.070;8.596;2022-11-20T01:18:34;9.60;;;5.00;;
55069;SDS011;40967;52.070;8.596;2022-11-20T01:21:07;10.25;;;5.07;;
55069;SDS011;40967;52.070;8.596;2022-11-20T01:23:35;8.88;;;4.60;;
55069;SDS011;40967;52.070;8.596;2022-11-20T01:26:03;9.90;;;5.18;;
55069;SDS011;40967;52.070;8.596;2022-11-20T01:28:30;9.65;;;5.22;;
55069;SDS011;40967;52.070;8.596;2022-11-20T01:30:55;9.77;;;5.60;;
55069;SDS011;40967;52.070;8.596;2022-11-20T01:33:21;9.27;;;4.87;;
55069;SDS011;40967;52.070;8.596;2022-11-20T01:35:46;7.60;;;4.10;;
55069;SDS011;40967;52.070;8.596;2022-11-20T01:38:11;8.43;;;4.27;;
55069;SDS011;40967;52.070;8.596;2022-11-20T01:40:37;8.80;;;4.73;;
55069;SDS011;40967;52.070;8.596;2022-11-20T01:46:02;8.88;;;4.38;;
55069;SDS011;40967;52.070;8.596;2022-11-20T01:48:47;7.93;;;4.18;;
55069;SDS011;40967;52.070;8.596;2022-11-20T01:51:38;9.20;;;4.30;;
55069;SDS011;40967;52.070;8.596;2022-11-20T01:54:10;8.65;;;5.03;;
55069;SDS011;40967;52.070;8.596;2022-11-20T01:56:41;8.68;;;4.70;;
55069;SDS011;40967;52.070;8.596;2022-11-20T01:59:09;8.85;;;4.32;;
55069;SDS011;40967;52.070;8.596;2022-11-20T02:01:37;9.00;;;4.70;;
55069;SDS011;40967;52.070;8.596;2022-11-20T02:04:04;8.00;;;4.18;;
55069;SDS011;40967;52.070;8.596;2022-11-20T02:06:32;8.23;;;3.83;;
55069;SDS011;40967;52.070;8.596;2022-11-20T02:09:13;7.60;;;3.92;;
55069;SDS011;40967;52.070;8.596;2022-11-20T02:11:39;7.72;;;3.88;;
55069;SDS011;40967;52.070;8.596;2022-11-20T02:14:05;7.47;;;3.73;;
55069;SDS011;40967;52.070;8.596;2022-11-20T02:16:32;6.63;;;3.70;;
55069;SDS011;40967;52.070;8.596;2022-11-20T02:19:01;9.25;;;4.82;;
55069;SDS011;40967;52.070;8.596;2022-11-20T02:24:04;7.70;;;4.20;;
55069;SDS011;40967;52.070;8.596;2022-11-20T02:26:34;8.85;;;4.07;;
55069;SDS011;40967;52.070;8.596;2022-11-20T02:29:04;8.85;;;4.47;;
55069;SDS011;40967;52.070;8.596;2022-11-20T02:31:34;7.40;;;4.18;;
55069;SDS011;40967;52.070;8.596;2022-11-20T02:34:01;9.15;;;4.47;;
55069;SDS011;40967;52.070;8.596;2022-11-20T02:36:26;7.27;;;4.03;;
55069;SDS011;40967;52.070;8.596;2022-11-20T02:38:54;7.82;;;3.85;;
55069;SDS011;40967;52.070;8.596;2022-11-20T02:41:20;7.47;;;3.67;;
55069;SDS011;40967;52.070;8.596;2022-11-20T02:43:45;7.50;;;3.57;;
55069;SDS011;40967;52.070;8.596;2022-11-20T02:46:11;6.63;;;3.57;;
55069;SDS011;40967;52.070;8.596;2022-11-20T02:48:36;7.90;;;3.70;;
55069;SDS011;40967;52.070;8.596;2022-11-20T02:51:02;7.07;;;3.63;;
55069;SDS011;40967;52.070;8.596;2022-11-20T02:53:27;7.60;;;3.53;;
55069;SDS011;40967;52.070;8.596;2022-11-20T02:55:53;6.87;;;3.67;;
55069;SDS011;40967;52.070;8.596;2022-11-20T02:58:18;8.93;;;3.87;;
55069;SDS011;40967;52.070;8.596;2022-11-20T03:00:43;8.50;;;4.13;;
55069;SDS011;40967;52.070;8.596;2022-11-20T03:03:09;9.13;;;4.30;;
55069;SDS011;40967;52.070;8.596;2022-11-20T03:05:34;6.70;;;3.80;;
55069;SDS011;40967;52.070;8.596;2022-11-20T03:07:59;7.53;;;3.63;;
55069;SDS011;40967;52.070;8.596;2022-11-20T03:10:25;7.60;;;3.93;;
55069;SDS011;40967;52.070;8.596;2022-11-20T03:12:54;7.40;;;3.73;;
55069;SDS011;40967;52.070;8.596;2022-11-20T03:15:21;6.72;;;3.20;;
55069;SDS011;40967;52.070;8.596;2022-11-20T03:17:47;7.38;;;3.22;;
55069;SDS011;40967;52.070;8.596;2022-11-20T03:20:12;6.80;;;3.37;;
55069;SDS011;40967;52.070;8.596;2022-11-20T03:22:38;7.83;;;3.50;;
55069;SDS011;40967;52.070;8.596;2022-11-20T03:25:03;7.27;;;3.60;;
55069;SDS011;40967;52.070;8.596;2022-11-20T03:27:31;7.30;;;3.67;;
55069;SDS011;40967;52.070;8.596;2022-11-20T03:29:58;6.85;;;3.55;;
55069;SDS011;40967;52.070;8.596;2022-11-20T03:32:23;6.97;;;3.40;;
55069;SDS011;40967;52.070;8.596;2022-11-20T03:34:48;8.68;;;4.50;;
55069;SDS011;40967;52.070;8.596;2022-11-20T03:37:14;8.40;;;4.50;;
55069;SDS011;40967;52.070;8.596;2022-11-20T03:39:39;7.90;;;4.23;;
55069;SDS011;40967;52.070;8.596;2022-11-20T03:42:05;8.07;;;4.03;;
55069;SDS011;40967;52.070;8.596;2022-11-20T03:44:50;9.05;;;4.13;;
55069;SDS011;40967;52.070;8.596;2022-11-20T03:47:15;7.82;;;3.95;;
55069;SDS011;40967;52.070;8.596;2022-11-20T03:49:41;8.77;;;4.40;;
55069;SDS011;40967;52.070;8.596;2022-11-20T03:52:06;8.93;;;4.67;;
55069;SDS011;40967;52.070;8.596;2022-11-20T03:54:31;10.10;;;5.03;;
55069;SDS011;40967;52.070;8.596;2022-11-20T03:56:57;9.17;;;5.00;;
55069;SDS011;40967;52.070;8.596;2022-11-20T03:59:22;9.55;;;4.70;;
55069;SDS011;40967;52.070;8.596;2022-11-20T04:01:47;7.83;;;4.50;;
55069;SDS011;40967;52.070;8.596;2022-11-20T04:04:13;7.90;;;3.93;;
55069;SDS011;40967;52.070;8.596;2022-11-20T04:06:38;7.68;;;4.10;;
55069;SDS011;40967;52.070;8.596;2022-11-20T04:09:04;8.60;;;4.63;;
55069;SDS011;40967;52.070;8.596;2022-11-20T04:11:31;8.63;;;4.22;;
55069;SDS011;40967;52.070;8.596;2022-11-20T04:13:59;8.63;;;4.57;;
55069;SDS011;40967;52.070;8.596;2022-11-20T04:16:26;8.80;;;5.03;;
55069;SDS011;40967;52.070;8.596;2022-11-20T04:18:55;9.23;;;4.20;;
55069;SDS011;40967;52.070;8.596;2022-11-20T04:21:22;8.65;;;4.82;;
55069;SDS011;40967;52.070;8.596;2022-11-20T04:23:49;7.57;;;4.00;;
55069;SDS011;40967;52.070;8.596;2022-11-20T04:26:15;8.40;;;4.20;;
55069;SDS011;40967;52.070;8.596;2022-11-20T04:28:40;8.10;;;4.30;;
55069;SDS011;40967;52.070;8.596;2022-11-20T04:31:07;7.35;;;4.05;;
55069;SDS011;40967;52.070;8.596;2022-11-20T04:33:37;8.45;;;4.25;;
55069;SDS011;40967;52.070;8.596;2022-11-20T04:36:03;9.50;;;4.53;;
55069;SDS011;40967;52.070;8.596;2022-11-20T04:38:31;7.05;;;4.13;;
55069;SDS011;40967;52.070;8.596;2022-11-20T04:40:57;7.90;;;3.97;;
55069;SDS011;40967;52.070;8.596;2022-11-20T04:43:27;8.00;;;4.18;;
55069;SDS011;40967;52.070;8.596;2022-11-20T04:45:53;8.07;;;4.20;;
55069;SDS011;40967;52.070;8.596;2022-11-20T04:48:19;7.88;;;4.15;;
55069;SDS011;40967;52.070;8.596;2022-11-20T04:50:44;9.38;;;4.57;;
55069;SDS011;40967;52.070;8.596;2022-11-20T04:53:09;8.20;;;4.40;;
55069;SDS011;40967;52.070;8.596;2022-11-20T04:55:35;8.48;;;4.22;;
55069;SDS011;40967;52.070;8.596;2022-11-20T04:58:00;8.30;;;4.00;;
55069;SDS011;40967;52.070;8.596;2022-11-20T05:00:25;6.60;;;3.70;;
55069;SDS011;40967;52.070;8.596;2022-11-20T05:02:51;7.07;;;3.80;;
55069;SDS011;40967;52.070;8.596;2022-11-20T05:05:16;7.37;;;3.57;;
55069;SDS011;40967;52.070;8.596;2022-11-20T05:07:41;6.78;;;3.60;;
55069;SDS011;40967;52.070;8.596;2022-11-20T05:10:07;7.87;;;4.20;;
55069;SDS011;40967;52.070;8.596;2022-11-20T05:12:32;6.80;;;3.63;;
55069;SDS011;40967;52.070;8.596;2022-11-20T05:14:58;7.57;;;4.07;;
55069;SDS011;40967;52.070;8.596;2022-11-20T05:17:23;7.78;;;4.18;;
55069;SDS011;40967;52.070;8.596;2022-11-20T05:19:48;7.57;;;3.83;;
55069;SDS011;40967;52.070;8.596;2022-11-20T05:22:14;6.97;;;3.77;;
55069;SDS011;40967;52.070;8.596;2022-11-20T05:24:39;8.30;;;4.27;;
55069;SDS011;40967;52.070;8.596;2022-11-20T05:27:05;8.60;;;4.00;;
55069;SDS011;40967;52.070;8.596;2022-11-20T05:29:30;7.50;;;4.05;;
55069;SDS011;40967;52.070;8.596;2022-11-20T05:31:55;7.77;;;4.47;;
55069;SDS011;40967;52.070;8.596;2022-11-20T05:34:21;7.07;;;3.80;;
55069;SDS011;40967;52.070;8.596;2022-11-20T05:36:46;7.60;;;4.03;;
55069;SDS011;40967;52.070;8.596;2022-11-20T05:39:11;7.57;;;3.77;;
55069;SDS011;40967;52.070;8.596;2022-11-20T05:41:37;8.07;;;4.00;;
55069;SDS011;40967;52.070;8.596;2022-11-20T05:44:02;7.13;;;3.60;;
55069;SDS011;40967;52.070;8.596;2022-11-20T05:46:28;7.47;;;3.80;;
55069;SDS011;40967;52.070;8.596;2022-11-20T05:48:53;7.97;;;4.07;;
55069;SDS011;40967;52.070;8.596;2022-11-20T05:51:19;6.40;;;3.67;;
55069;SDS011;40967;52.070;8.596;2022-11-20T05:53:44;8.05;;;3.80;;
55069;SDS011;40967;52.070;8.596;2022-11-20T05:56:12;8.15;;;4.05;;
55069;SDS011;40967;52.070;8.596;2022-11-20T05:58:39;7.07;;;3.60;;
55069;SDS011;40967;52.070;8.596;2022-11-20T06:01:05;6.93;;;3.85;;
55069;SDS011;40967;52.070;8.596;2022-11-20T06:03:33;9.03;;;4.00;;
55069;SDS011;40967;52.070;8.596;2022-11-20T06:05:59;6.97;;;3.40;;
55069;SDS011;40967;52.070;8.596;2022-11-20T06:08:25;8.55;;;4.32;;
55069;SDS011;40967;52.070;8.596;2022-11-20T06:10:51;8.30;;;4.30;;
55069;SDS011;40967;52.070;8.596;2022-11-20T06:13:16;8.87;;;4.23;;
55069;SDS011;40967;52.070;8.596;2022-11-20T06:15:42;9.43;;;4.93;;
55069;SDS011;40967;52.070;8.596;2022-11-20T06:18:07;8.40;;;4.50;;
55069;SDS011;40967;52.070;8.596;2022-11-20T06:20:32;7.83;;;4.40;;
55069;SDS011;40967;52.070;8.596;2022-11-20T06:22:58;9.53;;;5.07;;
55069;SDS011;40967;52.070;8.596;2022-11-20T06:25:23;10.20;;;5.20;;
55069;SDS011;40967;52.070;8.596;2022-11-20T06:27:49;10.20;;;5.45;;
55069;SDS011;40967;52.070;8.596;2022-11-20T06:30:14;9.23;;;4.80;;
55069;SDS011;40967;52.070;8.596;2022-11-20T06:32:40;10.38;;;5.35;;
55069;SDS011;40967;52.070;8.596;2022-11-20T06:35:05;11.07;;;5.10;;
55069;SDS011;40967;52.070;8.596;2022-11-20T06:37:31;10.73;;;5.70;;
55069;SDS011;40967;52.070;8.596;2022-11-20T06:39:56;9.90;;;5.17;;
55069;SDS011;40967;52.070;8.596;2022-11-20T06:42:21;9.13;;;4.90;;
55069;SDS011;40967;52.070;8.596;2022-11-20T06:44:47;9.67;;;5.47;;
55069;SDS011;40967;52.070;8.596;2022-11-20T06:47:12;9.60;;;4.95;;
55069;SDS011;40967;52.070;8.596;2022-11-20T06:49:37;9.03;;;4.70;;
55069;SDS011;40967;52.070;8.596;2022-11-20T06:52:03;10.02;;;5.22;;
55069;SDS011;40967;52.070;8.596;2022-11-20T06:54:29;9.60;;;4.68;;
55069;SDS011;40967;52.070;8.596;2022-11-20T06:56:54;7.33;;;4.00;;
55069;SDS011;40967;52.070;8.596;2022-11-20T06:59:20;9.03;;;4.47;;
55069;SDS011;40967;52.070;8.596;2022-11-20T07:01:45;8.13;;;4.07;;
55069;SDS011;40967;52.070;8.596;2022-11-20T07:04:10;9.00;;;4.53;;
55069;SDS011;40967;52.070;8.596;2022-11-20T07:06:36;8.50;;;4.65;;
55069;SDS011;40967;52.070;8.596;2022-11-20T07:09:01;7.60;;;3.83;;
55069;SDS011;40967;52.070;8.596;2022-11-20T07:11:27;8.50;;;4.40;;
55069;SDS011;40967;52.070;8.596;2022-11-20T07:13:52;7.33;;;4.00;;
55069;SDS011;40967;52.070;8.596;2022-11-20T07:16:17;7.40;;;3.67;;
55069;SDS011;40967;52.070;8.596;2022-11-20T07:18:43;7.90;;;3.70;;
55069;SDS011;40967;52.070;8.596;2022-11-20T07:21:09;7.43;;;3.70;;
55069;SDS011;40967;52.070;8.596;2022-11-20T07:23:35;8.15;;;4.10;;
55069;SDS011;40967;52.070;8.596;2022-11-20T07:26:08;7.07;;;3.80;;
55069;SDS011;40967;52.070;8.596;2022-11-20T07:28:35;7.50;;;4.00;;
55069;SDS011;40967;52.070;8.596;2022-11-20T07:31:01;7.47;;;4.07;;
55069;SDS011;40967;52.070;8.596;2022-11-20T07:33:27;7.55;;;3.83;;
55069;SDS011;40967;52.070;8.596;2022-11-20T07:35:53;7.03;;;3.83;;
55069;SDS011;40967;52.070;8.596;2022-11-20T07:38:18;6.63;;;3.78;;
55069;SDS011;40967;52.070;8.596;2022-11-20T07:40:43;6.40;;;3.23;;
55069;SDS011;40967;52.070;8.596;2022-11-20T07:43:09;7.23;;;3.77;;
55069;SDS011;40967;52.070;8.596;2022-11-20T07:45:34;6.63;;;3.40;;
55069;SDS011;40967;52.070;8.596;2022-11-20T07:48:00;7.90;;;4.00;;
55069;SDS011;40967;52.070;8.596;2022-11-20T07:50:25;6.67;;;3.67;;
55069;SDS011;40967;52.070;8.596;2022-11-20T07:52:50;7.03;;;3.60;;
55069;SDS011;40967;52.070;8.596;2022-11-20T07:55:17;6.45;;;3.50;;
55069;SDS011;40967;52.070;8.596;2022-11-20T07:57:42;6.20;;;3.30;;
55069;SDS011;40967;52.070;8.596;2022-11-20T08:00:08;6.45;;;3.50;;
55069;SDS011;40967;52.070;8.596;2022-11-20T08:02:38;6.97;;;3.60;;
55069;SDS011;40967;52.070;8.596;2022-11-20T08:05:04;6.68;;;3.80;;
55069;SDS011;40967;52.070;8.596;2022-11-20T08:07:34;8.10;;;4.07;;
55069;SDS011;40967;52.070;8.596;2022-11-20T08:10:03;8.65;;;4.30;;
55069;SDS011;40967;52.070;8.596;2022-11-20T08:12:29;7.93;;;4.15;;
55069;SDS011;40967;52.070;8.596;2022-11-20T08:15:13;6.65;;;3.63;;
55069;SDS011;40967;52.070;8.596;2022-11-20T08:17:39;7.03;;;3.97;;
55069;SDS011;40967;52.070;8.596;2022-11-20T08:20:04;8.53;;;4.50;;
55069;SDS011;40967;52.070;8.596;2022-11-20T08:22:30;9.63;;;5.18;;
55069;SDS011;40967;52.070;8.596;2022-11-20T08:24:55;8.63;;;4.70;;
55069;SDS011;40967;52.070;8.596;2022-11-20T08:27:20;9.83;;;5.30;;
55069;SDS011;40967;52.070;8.596;2022-11-20T08:29:46;8.63;;;4.73;;
55069;SDS011;40967;52.070;8.596;2022-11-20T08:32:11;8.23;;;4.33;;
55069;SDS011;40967;52.070;8.596;2022-11-20T08:34:37;9.82;;;5.32;;
55069;SDS011;40967;52.070;8.596;2022-11-20T08:37:02;9.20;;;4.77;;
55069;SDS011;40967;52.070;8.596;2022-11-20T08:39:27;9.15;;;4.97;;
55069;SDS011;40967;52.070;8.596;2022-11-20T08:41:53;10.63;;;5.37;;
55069;SDS011;40967;52.070;8.596;2022-11-20T08:44:18;10.63;;;5.80;;
55069;SDS011;40967;52.070;8.596;2022-11-20T08:46:44;12.10;;;6.27;;
55069;SDS011;40967;52.070;8.596;2022-11-20T08:49:11;10.37;;;5.60;;
55069;SDS011;40967;52.070;8.596;2022-11-20T08:51:37;11.90;;;5.82;;
55069;SDS011;40967;52.070;8.596;2022-11-20T08:54:03;11.15;;;6.10;;
55069;SDS011;40967;52.070;8.596;2022-11-20T08:56:30;11.80;;;6.32;;
55069;SDS011;40967;52.070;8.596;2022-11-20T08:58:55;11.38;;;6.32;;
55069;SDS011;40967;52.070;8.596;2022-11-20T09:01:21;11.47;;;6.50;;
55069;SDS011;40967;52.070;8.596;2022-11-20T09:03:48;11.30;;;6.25;;
55069;SDS011;40967;52.070;8.596;2022-11-20T09:06:14;12.63;;;7.80;;
55069;SDS011;40967;52.070;8.596;2022-11-20T09:08:39;12.53;;;7.23;;
55069;SDS011;40967;52.070;8.596;2022-11-20T09:11:05;13.17;;;7.70;;
55069;SDS011;40967;52.070;8.596;2022-11-20T09:13:31;12.32;;;6.95;;
55069;SDS011;40967;52.070;8.596;2022-11-20T09:15:59;18.52;;;9.55;;
55069;SDS011;40967;52.070;8.596;2022-11-20T09:18:30;15.38;;;8.43;;
55069;SDS011;40967;52.070;8.596;2022-11-20T09:20:58;15.18;;;8.52;;
55069;SDS011;40967;52.070;8.596;2022-11-20T09:23:24;17.42;;;9.50;;
55069;SDS011;40967;52.070;8.596;2022-11-20T09:25:51;15.82;;;8.27;;
55069;SDS011;40967;52.070;8.596;2022-11-20T09:28:17;15.77;;;8.53;;
55069;SDS011;40967;52.070;8.596;2022-11-20T09:30:43;15.90;;;8.93;;
55069;SDS011;40967;52.070;8.596;2022-11-20T09:33:09;13.73;;;7.93;;
55069;SDS011;40967;52.070;8.596;2022-11-20T09:35:34;14.80;;;7.95;;
55069;SDS011;40967;52.070;8.596;2022-11-20T09:38:04;16.93;;;8.57;;
55069;SDS011;40967;52.070;8.596;2022-11-20T09:40:30;12.23;;;6.35;;
55069;SDS011;40967;52.070;8.596;2022-11-20T09:43:08;13.20;;;6.88;;
55069;SDS011;40967;52.070;8.596;2022-11-20T09:46:02;11.10;;;5.70;;
55069;SDS011;40967;52.070;8.596;2022-11-20T09:51:12;10.13;;;4.97;;
55069;SDS011;40967;52.070;8.596;2022-11-20T09:56:19;8.10;;;4.57;;
55069;SDS011;40967;52.070;8.596;2022-11-20T09:58:47;11.90;;;6.87;;
55069;SDS011;40967;52.070;8.596;2022-11-20T10:01:19;9.57;;;5.50;;
55069;SDS011;40967;52.070;8.596;2022-11-20T10:03:52;8.45;;;5.13;;
55069;SDS011;40967;52.070;8.596;2022-11-20T10:09:32;7.70;;;4.40;;
55069;SDS011;40967;52.070;8.596;2022-11-20T10:26:03;11.35;;;6.20;;
55069;SDS011;40967;52.070;8.596;2022-11-20T10:29:09;7.75;;;4.35;;
55069;SDS011;40967;52.070;8.596;2022-11-20T10:31:38;6.10;;;3.45;;
55069;SDS011;40967;52.070;8.596;2022-11-20T10:36:52;6.88;;;3.78;;
55069;SDS011;40967;52.070;8.596;2022-11-20T10:41:54;8.30;;;4.72;;
55069;SDS011;40967;52.070;8.596;2022-11-20T10:44:22;7.53;;;4.40;;
55069;SDS011;40967;52.070;8.596;2022-11-20T10:47:14;7.17;;;4.30;;
55069;SDS011;40967;52.070;8.596;2022-11-20T10:49:41;7.80;;;4.45;;
55069;SDS011;40967;52.070;8.596;2022-11-20T11:00:32;6.65;;;3.80;;
55069;SDS011;40967;52.070;8.596;2022-11-20T11:02:57;6.30;;;3.58;;
55069;SDS011;40967;52.070;8.596;2022-11-20T11:08:16;5.28;;;2.70;;
55069;SDS011;40967;52.070;8.596;2022-11-20T11:15:47;8.07;;;4.07;;
55069;SDS011;40967;52.070;8.596;2022-11-20T11:18:22;8.18;;;4.85;;
55069;SDS011;40967;52.070;8.596;2022-11-20T11:21:02;8.52;;;4.60;;
55069;SDS011;40967;52.070;8.596;2022-11-20T11:23:36;7.22;;;4.22;;
55069;SDS011;40967;52.070;8.596;2022-11-20T11:26:05;6.95;;;3.60;;
55069;SDS011;40967;52.070;8.596;2022-11-20T11:28:32;5.78;;;3.17;;
55069;SDS011;40967;52.070;8.596;2022-11-20T11:30:58;5.97;;;3.22;;
55069;SDS011;40967;52.070;8.596;2022-11-20T11:33:28;5.00;;;2.70;;
55069;SDS011;40967;52.070;8.596;2022-11-20T11:35:56;5.15;;;2.80;;
55069;SDS011;40967;52.070;8.596;2022-11-20T11:38:40;4.68;;;2.70;;
55069;SDS011;40967;52.070;8.596;2022-11-20T11:41:19;6.47;;;3.38;;
55069;SDS011;40967;52.070;8.596;2022-11-20T11:43:52;5.70;;;3.10;;
55069;SDS011;40967;52.070;8.596;2022-11-20T11:46:38;6.30;;;3.30;;
55069;SDS011;40967;52.070;8.596;2022-11-20T11:51:36;6.45;;;3.67;;
55069;SDS011;40967;52.070;8.596;2022-11-20T11:54:13;5.90;;;3.28;;
55069;SDS011;40967;52.070;8.596;2022-11-20T11:56:47;5.70;;;3.00;;
55069;SDS011;40967;52.070;8.596;2022-11-20T11:59:15;4.78;;;2.58;;
55069;SDS011;40967;52.070;8.596;2022-11-20T12:05:14;5.43;;;2.60;;
55069;SDS011;40967;52.070;8.596;2022-11-20T12:07:52;5.72;;;2.88;;
55069;SDS011;40967;52.070;8.596;2022-11-20T12:12:55;4.75;;;2.60;;
55069;SDS011;40967;52.070;8.596;2022-11-20T12:15:31;5.70;;;3.35;;
55069;SDS011;40967;52.070;8.596;2022-11-20T12:17:58;4.78;;;2.60;;
55069;SDS011;40967;52.070;8.596;2022-11-20T12:20:29;4.90;;;2.57;;
55069;SDS011;40967;52.070;8.596;2022-11-20T12:23:02;3.90;;;2.22;;
55069;SDS011;40967;52.070;8.596;2022-11-20T12:25:34;4.55;;;2.35;;
55069;SDS011;40967;52.070;8.596;2022-11-20T12:30:33;4.65;;;2.30;;
55069;SDS011;40967;52.070;8.596;2022-11-20T12:44:33;3.95;;;2.22;;
55069;SDS011;40967;52.070;8.596;2022-11-20T12:53:05;5.85;;;2.88;;
55069;SDS011;40967;52.070;8.596;2022-11-20T12:55:56;5.50;;;2.63;;
55069;SDS011;40967;52.070;8.596;2022-11-20T13:01:50;5.03;;;2.72;;
55069;SDS011;40967;52.070;8.596;2022-11-20T13:06:46;4.93;;;2.80;;
55069;SDS011;40967;52.070;8.596;2022-11-20T13:09:12;5.03;;;2.60;;
55069;SDS011;40967;52.070;8.596;2022-11-20T13:14:42;4.68;;;2.25;;
55069;SDS011;40967;52.070;8.596;2022-11-20T13:17:27;4.50;;;2.30;;
55069;SDS011;40967;52.070;8.596;2022-11-20T13:20:00;5.55;;;3.13;;
55069;SDS011;40967;52.070;8.596;2022-11-20T13:22:26;5.68;;;2.65;;
55069;SDS011;40967;52.070;8.596;2022-11-20T13:24:54;6.05;;;2.97;;
55069;SDS011;40967;52.070;8.596;2022-11-20T13:27:21;5.53;;;2.80;;
55069;SDS011;40967;52.070;8.596;2022-11-20T13:32:58;4.70;;;2.20;;
55069;SDS011;40967;52.070;8.596;2022-11-20T13:35:34;5.03;;;2.80;;
55069;SDS011;40967;52.070;8.596;2022-11-20T13:38:09;6.13;;;2.88;;
55069;SDS011;40967;52.070;8.596;2022-11-20T13:40:37;5.57;;;2.90;;
55069;SDS011;40967;52.070;8.596;2022-11-20T13:46:07;5.28;;;2.92;;
55069;SDS011;40967;52.070;8.596;2022-11-20T13:48:41;4.78;;;2.60;;
55069;SDS011;40967;52.070;8.596;2022-11-20T13:51:25;4.78;;;2.53;;
55069;SDS011;40967;52.070;8.596;2022-11-20T13:54:04;6.00;;;3.33;;
55069;SDS011;40967;52.070;8.596;2022-11-20T13:57:49;6.95;;;3.95;;
55069;SDS011;40967;52.070;8.596;2022-11-20T14:00:19;5.10;;;2.90;;
55069;SDS011;40967;52.070;8.596;2022-11-20T14:03:30;5.15;;;2.75;;
55069;SDS011;40967;52.070;8.596;2022-11-20T14:06:19;4.82;;;2.50;;
55069;SDS011;40967;52.070;8.596;2022-11-20T14:08:44;4.40;;;2.22;;
55069;SDS011;40967;52.070;8.596;2022-11-20T14:11:19;4.80;;;2.43;;
55069;SDS011;40967;52.070;8.596;2022-11-20T14:13:55;5.22;;;2.78;;
55069;SDS011;40967;52.070;8.596;2022-11-20T14:16:25;5.30;;;2.53;;
55069;SDS011;40967;52.070;8.596;2022-11-20T14:18:52;5.25;;;2.60;;
55069;SDS011;40967;52.070;8.596;2022-11-20T14:21:25;5.63;;;2.90;;
55069;SDS011;40967;52.070;8.596;2022-11-20T14:24:03;5.28;;;2.78;;
55069;SDS011;40967;52.070;8.596;2022-11-20T14:26:35;4.47;;;2.33;;
55069;SDS011;40967;52.070;8.596;2022-11-20T14:29:11;4.43;;;2.20;;
55069;SDS011;40967;52.070;8.596;2022-11-20T14:31:39;4.60;;;2.47;;
55069;SDS011;40967;52.070;8.596;2022-11-20T14:34:04;4.63;;;2.08;;
55069;SDS011;40967;52.070;8.596;2022-11-20T14:36:30;4.70;;;2.27;;
55069;SDS011;40967;52.070;8.596;2022-11-20T14:38:55;4.85;;;2.45;;
55069;SDS011;40967;52.070;8.596;2022-11-20T14:41:22;3.80;;;2.00;;
55069;SDS011;40967;52.070;8.596;2022-11-20T14:43:58;4.25;;;2.20;;
55069;SDS011;40967;52.070;8.596;2022-11-20T14:46:26;5.00;;;2.30;;
55069;SDS011;40967;52.070;8.596;2022-11-20T14:48:56;4.20;;;2.10;;
55069;SDS011;40967;52.070;8.596;2022-11-20T14:54:16;5.35;;;2.65;;
55069;SDS011;40967;52.070;8.596;2022-11-20T14:57:00;4.47;;;2.30;;
55069;SDS011;40967;52.070;8.596;2022-11-20T14:59:28;5.75;;;2.80;;
55069;SDS011;40967;52.070;8.596;2022-11-20T15:01:59;4.90;;;2.65;;
55069;SDS011;40967;52.070;8.596;2022-11-20T15:04:27;4.78;;;2.47;;
55069;SDS011;40967;52.070;8.596;2022-11-20T15:06:54;5.27;;;2.73;;
55069;SDS011;40967;52.070;8.596;2022-11-20T15:09:21;5.88;;;2.92;;
55069;SDS011;40967;52.070;8.596;2022-11-20T15:11:52;6.18;;;3.20;;
55069;SDS011;40967;52.070;8.596;2022-11-20T15:14:18;7.53;;;3.95;;
55069;SDS011;40967;52.070;8.596;2022-11-20T15:16:43;7.70;;;4.00;;
55069;SDS011;40967;52.070;8.596;2022-11-20T15:19:19;7.40;;;3.90;;
55069;SDS011;40967;52.070;8.596;2022-11-20T15:21:46;7.38;;;3.92;;
55069;SDS011;40967;52.070;8.596;2022-11-20T15:24:12;8.00;;;4.30;;
55069;SDS011;40967;52.070;8.596;2022-11-20T15:26:37;9.37;;;4.90;;
55069;SDS011;40967;52.070;8.596;2022-11-20T15:29:08;8.40;;;4.13;;
55069;SDS011;40967;52.070;8.596;2022-11-20T15:31:35;8.27;;;4.55;;
55069;SDS011;40967;52.070;8.596;2022-11-20T15:34:02;8.63;;;4.28;;
55069;SDS011;40967;52.070;8.596;2022-11-20T15:36:28;8.02;;;4.10;;
55069;SDS011;40967;52.070;8.596;2022-11-20T15:38:53;8.77;;;4.77;;
55069;SDS011;40967;52.070;8.596;2022-11-20T15:41:18;8.47;;;4.67;;
55069;SDS011;40967;52.070;8.596;2022-11-20T15:43:44;7.80;;;4.70;;
55069;SDS011;40967;52.070;8.596;2022-11-20T15:46:11;8.13;;;4.50;;
55069;SDS011;40967;52.070;8.596;2022-11-20T15:53:35;7.53;;;4.38;;
55069;SDS011;40967;52.070;8.596;2022-11-20T15:56:05;7.88;;;4.18;;
55069;SDS011;40967;52.070;8.596;2022-11-20T15:58:30;6.68;;;3.40;;
55069;SDS011;40967;52.070;8.596;2022-11-20T16:00:56;6.77;;;3.77;;
55069;SDS011;40967;52.070;8.596;2022-11-20T16:03:21;6.50;;;3.60;;
55069;SDS011;40967;52.070;8.596;2022-11-20T16:05:47;6.38;;;3.35;;
55069;SDS011;40967;52.070;8.596;2022-11-20T16:08:12;6.37;;;3.53;;
55069;SDS011;40967;52.070;8.596;2022-11-20T16:10:38;5.90;;;3.30;;
55069;SDS011;40967;52.070;8.596;2022-11-20T16:13:04;6.68;;;3.75;;
55069;SDS011;40967;52.070;8.596;2022-11-20T16:15:55;6.57;;;3.80;;
55069;SDS011;40967;52.070;8.596;2022-11-20T16:18:22;7.18;;;3.92;;
55069;SDS011;40967;52.070;8.596;2022-11-20T16:20:51;7.53;;;4.10;;
55069;SDS011;40967;52.070;8.596;2022-11-20T16:23:18;6.28;;;3.83;;
55069;SDS011;40967;52.070;8.596;2022-11-20T16:25:45;7.15;;;4.18;;
55069;SDS011;40967;52.070;8.596;2022-11-20T16:28:11;9.13;;;4.85;;
55069;SDS011;40967;52.070;8.596;2022-11-20T16:30:36;9.25;;;5.47;;
55069;SDS011;40967;52.070;8.596;2022-11-20T16:33:02;11.57;;;5.97;;
55069;SDS011;40967;52.070;8.596;2022-11-20T16:35:28;11.35;;;6.25;;
55069;SDS011;40967;52.070;8.596;2022-11-20T16:37:55;13.35;;;7.85;;
55069;SDS011;40967;52.070;8.596;2022-11-20T16:40:21;12.65;;;7.47;;